Terminal Aerodrome Forecast
Issued by NWS

Home | Current Version | Previous Version | Text Only | Print | Product List | Glossary On
Versions: 1 2 3 4 5 6 7 8 9 10 11 12 13 14 15 16 17 18
000
FTUS44 KLZK 071100
TAFBPK
TAF
KBPK 071132Z 0712/0812 20007KT P6SM VCSH SCT030 OVC070
      TEMPO 0712/0714 5SM -SHRA BR OVC050
     FM071400 23008G15KT P6SM VCTS SCT030CB OVC050
      TEMPO 0714/0718 4SM TSRA BR OVC035CB
     FM071800 23009G18KT P6SM -TSRA BKN035CB OVC050
      TEMPO 0718/0722 4SM TSRA OVC030CB=

USA.gov is the U.S. government's official web portal to all federal, state and local government web resources and services.